createdAt,value
2019-03-31T06:45:50.330Z,25.27
2019-03-31T06:48:20.469Z,26.52
2019-03-31T06:50:50.587Z,22.48
2019-03-31T06:53:20.576Z,23.27
2019-03-31T06:55:50.624Z,20.48
2019-03-31T06:58:20.585Z,19.65
2019-03-31T07:00:50.691Z,18.98
2019-03-31T07:03:20.656Z,16.75
2019-03-31T07:05:50.661Z,15.95
2019-03-31T07:08:20.905Z,14.70
2019-03-31T07:10:51.013Z,15.32
2019-03-31T07:13:21.098Z,13.68
2019-03-31T07:15:51.153Z,15.08
2019-03-31T07:18:21.493Z,13.80
2019-03-31T07:20:51.540Z,13.15
2019-03-31T07:23:21.698Z,13.72
2019-03-31T07:25:51.732Z,10.38
2019-03-31T07:28:22.057Z,11.57
2019-03-31T07:30:52.094Z,10.20
2019-03-31T07:33:22.397Z,10.28
2019-03-31T07:35:52.394Z,9.70
2019-03-31T07:38:22.494Z,10.70
2019-03-31T07:40:52.664Z,9.53
2019-03-31T07:43:24.100Z,8.35
2019-03-31T07:45:55.805Z,7.85
2019-03-31T07:48:26.486Z,7.95
2019-03-31T07:50:56.912Z,8.25
2019-03-31T07:53:27.031Z,8.93
2019-03-31T07:55:58.685Z,8.20
2019-03-31T07:58:29.146Z,7.35
2019-03-31T08:00:59.785Z,7.05
2019-03-31T08:03:30.268Z,7.20
2019-03-31T08:06:00.693Z,7.28
2019-03-31T08:08:32.451Z,6.70
2019-03-31T08:11:02.776Z,6.00
2019-03-31T08:13:33.200Z,5.90
2019-03-31T08:16:03.529Z,5.72
2019-03-31T08:18:33.847Z,5.42
2019-03-31T08:21:03.963Z,5.78
2019-03-31T08:23:35.629Z,6.35
2019-03-31T08:26:07.068Z,6.53
2019-03-31T08:28:37.496Z,6.33
2019-03-31T08:31:07.520Z,6.30
2019-03-31T08:33:39.451Z,6.97
2019-03-31T08:36:09.897Z,6.70
2019-03-31T08:38:41.347Z,5.83
2019-03-31T08:41:11.775Z,5.85
2019-03-31T08:43:42.201Z,6.65
2019-03-31T08:46:12.525Z,5.83
2019-03-31T08:48:43.050Z,5.80
2019-03-31T08:51:13.581Z,5.12
2019-03-31T08:53:44.005Z,5.80
2019-03-31T08:56:14.536Z,5.62
2019-03-31T08:58:44.855Z,6.03
2019-03-31T09:01:16.818Z,6.45
2019-03-31T09:03:47.346Z,5.58
2019-03-31T09:06:17.463Z,5.78
2019-03-31T09:08:47.889Z,5.95
2019-03-31T09:11:19.645Z,6.20
2019-03-31T09:13:50.071Z,5.90
2019-03-31T09:16:20.599Z,5.95
2019-03-31T09:18:51.437Z,7.12
2019-03-31T09:21:21.757Z,6.85
2019-03-31T09:23:52.182Z,7.22
2019-03-31T09:26:22.407Z,6.97
2019-03-31T09:28:54.059Z,8.18
2019-03-31T09:31:24.689Z,9.43
2019-03-31T09:33:55.220Z,8.00
2019-03-31T09:36:26.649Z,8.55
2019-03-31T09:38:57.195Z,8.75
2019-03-31T09:41:27.722Z,9.25
2019-03-31T09:43:58.557Z,8.20
2019-03-31T09:46:30.008Z,7.97
2019-03-31T09:49:00.412Z,7.78
2019-03-31T09:51:30.857Z,7.30
2019-03-31T09:54:01.498Z,8.80
2019-03-31T09:56:32.017Z,7.22
2019-03-31T09:59:02.239Z,8.38
2019-03-31T10:01:32.870Z,6.28
2019-03-31T10:04:03.296Z,6.75
2019-03-31T10:06:34.097Z,5.47
2019-03-31T10:09:06.254Z,4.62
2019-03-31T10:11:36.520Z,4.78
2019-03-31T10:14:06.918Z,4.83
2019-03-31T10:16:37.673Z,5.00
2019-03-31T10:19:09.739Z,5.05
2019-03-31T10:21:39.956Z,5.08
2019-03-31T10:24:10.129Z,4.75
2019-03-31T10:26:40.607Z,4.67
2019-03-31T10:29:11.031Z,5.10
2019-03-31T10:31:41.331Z,4.00
2019-03-31T10:34:11.788Z,3.83
2019-03-31T10:36:44.756Z,4.20
2019-03-31T10:39:14.271Z,3.72
2019-03-31T10:41:44.438Z,3.75
2019-03-31T10:44:14.477Z,3.65
2019-03-31T10:46:44.776Z,4.28
2019-03-31T10:49:15.154Z,4.03
2019-03-31T10:51:45.784Z,4.60
2019-03-31T10:54:16.317Z,4.50
2019-03-31T10:56:46.840Z,4.08
2019-03-31T10:59:17.266Z,3.10
2019-03-31T11:01:48.305Z,2.87
2019-03-31T11:04:18.681Z,3.10
2019-03-31T11:06:59.005Z,1.80
2019-03-31T11:09:21.323Z,2.05
2019-03-31T11:11:51.754Z,1.60
2019-03-31T11:14:22.064Z,1.85
2019-03-31T11:16:52.396Z,1.67
2019-03-31T11:19:22.718Z,1.80
2019-03-31T11:21:54.783Z,1.30
2019-03-31T11:24:25.312Z,1.55
2019-03-31T11:26:55.843Z,1.50
2019-03-31T11:29:26.265Z,1.85
2019-03-31T11:31:56.705Z,1.40
2019-03-31T11:34:27.116Z,1.98
2019-03-31T11:36:57.745Z,2.00
2019-03-31T11:39:28.376Z,3.25
2019-03-31T11:41:59.210Z,2.40
2019-03-31T11:44:32.377Z,2.27
2019-03-31T11:47:03.037Z,1.47
2019-03-31T11:49:33.663Z,1.37
2019-03-31T11:52:04.191Z,1.57
2019-03-31T11:54:34.620Z,1.42
2019-03-31T11:57:05.146Z,1.47
2019-03-31T11:59:35.672Z,1.42
2019-03-31T12:02:06.442Z,1.47
2019-03-31T12:04:38.468Z,1.40
2019-03-31T12:07:09.100Z,1.55
2019-03-31T12:09:39.628Z,1.70
2019-03-31T12:12:11.701Z,1.25
2019-03-31T12:14:43.761Z,1.50
2019-03-31T12:17:15.922Z,1.80
2019-03-31T12:19:48.817Z,2.08
2019-03-31T12:22:18.721Z,2.40
2019-03-31T12:24:49.349Z,2.17
2019-03-31T12:27:19.882Z,2.50
2019-03-31T12:29:50.508Z,2.52
2019-03-31T12:32:21.449Z,2.00
2019-03-31T12:34:51.977Z,1.70
2019-03-31T12:37:22.706Z,2.12
2019-03-31T12:39:53.951Z,2.25
2019-03-31T12:42:24.479Z,2.12
2019-03-31T12:44:55.108Z,1.42
2019-03-31T12:47:25.637Z,1.52
2019-03-31T12:49:56.268Z,1.70
2019-03-31T12:52:28.128Z,1.70
2019-03-31T12:54:58.659Z,1.65
2019-03-31T12:57:29.797Z,2.40
2019-03-31T13:00:01.966Z,2.15
2019-03-31T13:02:32.737Z,1.82
2019-03-31T13:05:06.911Z,1.80
2019-03-31T13:07:37.361Z,1.90
2019-03-31T13:10:07.989Z,1.80
2019-03-31T13:12:38.700Z,1.82
2019-03-31T13:15:09.333Z,1.77
2019-03-31T13:17:39.859Z,2.22
2019-03-31T13:20:10.625Z,2.20
2019-03-31T13:22:41.325Z,1.60
2019-03-31T13:25:12.100Z,2.22
2019-03-31T13:27:42.689Z,2.10
2019-03-31T13:30:16.550Z,1.82
2019-03-31T13:32:47.227Z,2.00
2019-03-31T13:35:17.753Z,1.70
2019-03-31T13:37:48.384Z,1.77
2019-03-31T13:40:18.918Z,1.50
2019-03-31T13:42:49.443Z,1.47
2019-03-31T13:45:20.509Z,1.72
2019-03-31T13:47:51.010Z,1.45
2019-03-31T13:50:22.667Z,1.62
2019-03-31T13:52:53.301Z,1.77
2019-03-31T13:55:24.131Z,1.02
2019-03-31T13:57:55.286Z,1.45
2019-03-31T14:00:43.899Z,1.45
2019-03-31T14:03:16.140Z,1.30
2019-03-31T14:05:46.864Z,1.67
2019-03-31T14:08:25.438Z,1.50
2019-03-31T14:10:51.155Z,1.57
2019-03-31T14:13:22.934Z,1.60
2019-03-31T14:15:54.567Z,1.55
2019-03-31T14:18:26.324Z,1.60
2019-03-31T14:20:59.822Z,2.05
2019-03-31T14:23:31.991Z,1.70
2019-03-31T14:26:02.619Z,1.77
2019-03-31T14:28:33.249Z,1.82
2019-03-31T14:31:03.834Z,1.42
2019-03-31T14:33:34.716Z,1.65
2019-03-31T14:36:06.629Z,1.90
2019-03-31T14:38:40.377Z,1.57
2019-03-31T14:41:09.535Z,1.57
2019-03-31T14:43:40.309Z,1.82
2019-03-31T14:46:11.040Z,1.47
2019-03-31T14:48:41.775Z,1.60
2019-03-31T14:51:12.507Z,1.60
2019-03-31T14:53:44.576Z,1.10
2019-03-31T14:56:15.339Z,1.30
2019-03-31T14:58:46.038Z,1.42
2019-03-31T15:01:16.673Z,1.70
2019-03-31T15:03:50.370Z,1.77
2019-03-31T15:06:22.228Z,1.40
2019-03-31T15:08:54.553Z,1.42
2019-03-31T15:11:26.256Z,1.32
2019-03-31T15:13:56.856Z,1.70
2019-03-31T15:16:27.514Z,1.67
2019-03-31T15:18:58.045Z,1.67
2019-03-31T15:21:30.209Z,1.40
2019-03-31T15:24:00.840Z,2.10
2019-03-31T15:26:31.471Z,1.77
2019-03-31T15:29:02.137Z,1.62
2019-03-31T15:31:32.834Z,1.85
2019-03-31T15:34:03.465Z,2.25
2019-03-31T15:36:35.119Z,2.12
2019-03-31T15:39:10.257Z,2.95
2019-03-31T15:41:40.886Z,3.00
2019-03-31T15:44:12.747Z,2.83
2019-03-31T15:46:45.935Z,2.70
2019-03-31T15:49:18.381Z,2.58
2019-03-31T15:51:50.507Z,2.00
2019-03-31T15:54:24.277Z,2.37
2019-03-31T15:56:55.011Z,1.85
2019-03-31T15:59:26.475Z,2.42
2019-03-31T16:01:58.729Z,2.37
2019-03-31T16:04:31.001Z,2.22
2019-03-31T16:07:01.839Z,1.75
2019-03-31T16:09:32.462Z,1.85
2019-03-31T16:12:04.117Z,2.00
2019-03-31T16:14:35.264Z,2.08
2019-03-31T16:17:07.529Z,2.00
2019-03-31T16:19:38.264Z,2.87
2019-03-31T16:22:09.610Z,2.40
2019-03-31T16:24:46.693Z,2.45
2019-03-31T16:27:17.422Z,1.90
2019-03-31T16:29:49.593Z,2.37
2019-03-31T16:32:20.425Z,2.12
2019-03-31T16:34:55.165Z,1.80
2019-03-31T16:37:27.155Z,2.27
2019-03-31T16:39:58.926Z,2.00
2019-03-31T16:42:30.728Z,2.42
2019-03-31T16:45:03.511Z,1.92
2019-03-31T16:47:34.247Z,1.50
2019-03-31T16:50:07.488Z,2.40
2019-03-31T16:52:39.398Z,1.75
2019-03-31T16:55:11.014Z,2.00
2019-03-31T16:57:42.963Z,2.08
2019-03-31T17:00:14.330Z,1.98
2019-03-31T17:02:46.160Z,1.67
2019-03-31T17:05:22.196Z,1.25
2019-03-31T17:07:49.033Z,1.95
2019-03-31T17:10:19.848Z,2.20
2019-03-31T17:12:52.017Z,1.70
2019-03-31T17:15:22.752Z,1.70
2019-03-31T17:17:54.505Z,1.98
2019-03-31T17:20:26.880Z,2.00
2019-03-31T17:22:59.453Z,3.10
2019-03-31T17:25:31.763Z,2.95
2019-03-31T17:28:03.071Z,2.02
2019-03-31T17:30:35.447Z,2.08
2019-03-31T17:33:07.509Z,2.20
2019-03-31T17:35:41.104Z,2.10
2019-03-31T17:38:12.348Z,1.90
2019-03-31T17:40:44.003Z,1.65
2019-03-31T17:43:17.810Z,2.00
2019-03-31T17:45:49.462Z,1.52
2019-03-31T17:48:21.321Z,1.98
2019-03-31T17:50:53.591Z,2.12
2019-03-31T17:53:24.530Z,2.15
2019-03-31T17:55:57.411Z,1.75
2019-03-31T17:58:30.066Z,2.30
2019-03-31T18:01:00.723Z,1.80
2019-03-31T18:03:32.553Z,2.20
2019-03-31T18:06:05.941Z,2.20
2019-03-31T18:08:42.440Z,2.35
2019-03-31T18:13:43.407Z,1.70
2019-03-31T18:16:18.881Z,1.62
2019-03-31T18:18:49.367Z,1.92
2019-03-31T18:21:21.125Z,2.45
2019-03-31T18:23:52.930Z,2.55
2019-03-31T18:26:27.038Z,2.47
2019-03-31T18:28:58.668Z,3.00
2019-03-31T18:31:32.471Z,2.62
2019-03-31T18:34:09.007Z,2.90
2019-03-31T18:36:42.474Z,3.10
2019-03-31T18:39:14.791Z,4.40
2019-03-31T18:41:47.674Z,3.70
2019-03-31T18:44:19.942Z,3.45
2019-03-31T18:46:53.850Z,3.55
2019-03-31T18:49:24.611Z,3.12
2019-03-31T18:51:56.754Z,3.00
2019-03-31T18:54:29.425Z,2.80
2019-03-31T18:57:13.780Z,2.42
2019-03-31T19:00:04.788Z,2.05
2019-03-31T19:02:37.261Z,2.60
2019-03-31T19:05:09.835Z,1.80
2019-03-31T19:07:42.104Z,1.92
2019-03-31T19:10:33.931Z,1.20
2019-03-31T19:13:09.592Z,1.72
2019-03-31T19:15:52.399Z,1.92
2019-03-31T19:18:42.482Z,1.95
2019-03-31T19:21:23.967Z,1.72
2019-03-31T19:24:05.490Z,1.82
2019-03-31T19:26:54.720Z,1.92
2019-03-31T19:29:43.371Z,1.60
2019-03-31T19:32:24.654Z,1.98
2019-03-31T19:34:59.795Z,1.65
2019-03-31T19:37:35.258Z,1.67
2019-03-31T19:40:14.021Z,1.82
2019-03-31T19:43:04.414Z,1.57
2019-03-31T19:45:39.243Z,1.80
2019-03-31T19:48:20.403Z,2.08
2019-03-31T19:50:59.050Z,2.00
2019-03-31T19:53:50.148Z,1.62
2019-03-31T19:56:25.592Z,1.80
2019-03-31T20:01:51.166Z,1.80
2019-03-31T20:04:40.493Z,1.98
2019-03-31T20:07:27.915Z,1.65
2019-03-31T20:10:14.456Z,1.65
2019-03-31T20:12:54.057Z,1.30
2019-03-31T20:15:30.780Z,2.12
2019-03-31T20:18:14.468Z,2.20
2019-03-31T20:20:59.027Z,8.90
2019-03-31T20:23:47.985Z,3.15
2019-03-31T20:26:24.146Z,2.67
2019-03-31T20:29:07.449Z,2.70
2019-03-31T20:31:55.958Z,2.20
2019-03-31T20:34:28.294Z,2.20
2019-03-31T20:37:16.435Z,2.40
2019-03-31T20:39:56.587Z,2.30
2019-03-31T20:42:23.327Z,2.83
2019-03-31T20:44:54.981Z,2.42
2019-03-31T20:47:26.231Z,2.83
2019-03-31T20:49:56.855Z,2.22
2019-03-31T20:52:30.525Z,2.47
2019-03-31T20:55:15.347Z,1.70
2019-03-31T20:57:35.412Z,2.05
2019-03-31T21:00:09.050Z,2.77
2019-03-31T21:02:40.659Z,2.52
2019-03-31T21:05:11.398Z,2.10
2019-03-31T21:07:43.049Z,2.50
2019-03-31T21:10:13.718Z,2.20
2019-03-31T21:12:44.244Z,2.60
2019-03-31T21:15:14.935Z,2.40
2019-03-31T21:17:45.675Z,2.25
2019-03-31T21:20:16.477Z,2.05
2019-03-31T21:22:47.134Z,1.87
2019-03-31T21:25:17.765Z,1.98
2019-03-31T21:27:48.297Z,2.00
